sensor_id;sensor_type;location;lat;lon;timestamp;temperature;humidity
14154;DHT22;7157;53.144;7.570;2023-12-28T00:07:28;9.64;97.65
14154;DHT22;7157;53.144;7.570;2023-12-28T00:17:32;9.63;97.26
14154;DHT22;7157;53.144;7.570;2023-12-28T00:27:35;9.63;97.61
14154;DHT22;7157;53.144;7.570;2023-12-28T00:37:40;9.74;96.98
14154;DHT22;7157;53.144;7.570;2023-12-28T00:47:43;9.89;96.30
14154;DHT22;7157;53.144;7.570;2023-12-28T00:57:47;9.86;97.22
14154;DHT22;7157;53.144;7.570;2023-12-28T01:07:50;10.08;96.52
14154;DHT22;7157;53.144;7.570;2023-12-28T01:17:54;10.14;96.33
14154;DHT22;7157;53.144;7.570;2023-12-28T01:27:58;10.11;97.28
14154;DHT22;7157;53.144;7.570;2023-12-28T01:38:03;10.24;97.27
14154;DHT22;7157;53.144;7.570;2023-12-28T01:48:06;10.15;97.81
14154;DHT22;7157;53.144;7.570;2023-12-28T01:58:11;10.08;98.80
14154;DHT22;7157;53.144;7.570;2023-12-28T02:08:14;10.14;98.36
14154;DHT22;7157;53.144;7.570;2023-12-28T02:18:20;9.98;99.45
14154;DHT22;7157;53.144;7.570;2023-12-28T02:28:25;10.08;98.67
14154;DHT22;7157;53.144;7.570;2023-12-28T02:38:29;9.92;99.09
14154;DHT22;7157;53.144;7.570;2023-12-28T02:48:34;10.12;98.10
14154;DHT22;7157;53.144;7.570;2023-12-28T02:58:37;9.98;98.78
14154;DHT22;7157;53.144;7.570;2023-12-28T03:08:41;10.15;98.13
14154;DHT22;7157;53.144;7.570;2023-12-28T03:18:44;10.33;97.34
14154;DHT22;7157;53.144;7.570;2023-12-28T03:28:49;10.33;97.08
14154;DHT22;7157;53.144;7.570;2023-12-28T03:38:51;10.35;97.17
14154;DHT22;7157;53.144;7.570;2023-12-28T03:48:55;10.57;96.83
14154;DHT22;7157;53.144;7.570;2023-12-28T03:58:58;10.53;96.84
14154;DHT22;7157;53.144;7.570;2023-12-28T04:09:03;10.39;97.44
14154;DHT22;7157;53.144;7.570;2023-12-28T04:19:06;10.53;96.84
14154;DHT22;7157;53.144;7.570;2023-12-28T04:29:10;10.59;96.37
14154;DHT22;7157;53.144;7.570;2023-12-28T04:39:13;10.40;97.65
14154;DHT22;7157;53.144;7.570;2023-12-28T04:49:17;10.48;97.71
14154;DHT22;7157;53.144;7.570;2023-12-28T04:59:20;10.62;97.13
14154;DHT22;7157;53.144;7.570;2023-12-28T05:09:24;10.69;96.49
14154;DHT22;7157;53.144;7.570;2023-12-28T05:19:27;11.01;95.26
14154;DHT22;7157;53.144;7.570;2023-12-28T05:29:32;11.07;95.33
14154;DHT22;7157;53.144;7.570;2023-12-28T05:39:35;11.13;94.88
14154;DHT22;7157;53.144;7.570;2023-12-28T05:49:39;11.18;94.37
14154;DHT22;7157;53.144;7.570;2023-12-28T05:59:42;11.18;94.41
14154;DHT22;7157;53.144;7.570;2023-12-28T06:09:46;11.10;94.36
14154;DHT22;7157;53.144;7.570;2023-12-28T06:19:50;11.23;94.31
14154;DHT22;7157;53.144;7.570;2023-12-28T06:29:54;11.25;94.45
14154;DHT22;7157;53.144;7.570;2023-12-28T06:39:57;11.38;93.75
14154;DHT22;7157;53.144;7.570;2023-12-28T06:50:01;11.27;94.14
14154;DHT22;7157;53.144;7.570;2023-12-28T07:00:05;11.28;93.99
14154;DHT22;7157;53.144;7.570;2023-12-28T07:10:10;11.34;93.56
14154;DHT22;7157;53.144;7.570;2023-12-28T07:20:13;11.43;93.10
14154;DHT22;7157;53.144;7.570;2023-12-28T07:30:17;11.58;92.05
14154;DHT22;7157;53.144;7.570;2023-12-28T07:40:20;11.47;92.27
14154;DHT22;7157;53.144;7.570;2023-12-28T07:50:24;11.58;91.83
14154;DHT22;7157;53.144;7.570;2023-12-28T08:00:27;11.69;90.48
14154;DHT22;7157;53.144;7.570;2023-12-28T08:10:32;11.69;89.58
14154;DHT22;7157;53.144;7.570;2023-12-28T08:20:35;11.75;89.32
14154;DHT22;7157;53.144;7.570;2023-12-28T08:30:39;11.92;88.42
14154;DHT22;7157;53.144;7.570;2023-12-28T08:40:42;11.91;88.71
14154;DHT22;7157;53.144;7.570;2023-12-28T08:50:48;11.97;88.03
14154;DHT22;7157;53.144;7.570;2023-12-28T09:00:51;11.98;88.30
14154;DHT22;7157;53.144;7.570;2023-12-28T09:10:55;12.08;87.39
14154;DHT22;7157;53.144;7.570;2023-12-28T09:20:58;12.14;87.28
14154;DHT22;7157;53.144;7.570;2023-12-28T09:31:03;12.17;87.53
14154;DHT22;7157;53.144;7.570;2023-12-28T09:41:12;12.34;86.81
14154;DHT22;7157;53.144;7.570;2023-12-28T09:51:17;12.44;85.86
14154;DHT22;7157;53.144;7.570;2023-12-28T10:01:20;12.55;85.56
14154;DHT22;7157;53.144;7.570;2023-12-28T10:11:24;12.26;87.22
14154;DHT22;7157;53.144;7.570;2023-12-28T10:21:27;12.43;86.80
14154;DHT22;7157;53.144;7.570;2023-12-28T10:31:32;12.43;86.64
14154;DHT22;7157;53.144;7.570;2023-12-28T10:41:36;12.38;86.58
14154;DHT22;7157;53.144;7.570;2023-12-28T10:51:43;12.35;87.15
14154;DHT22;7157;53.144;7.570;2023-12-28T11:01:51;12.44;85.93
14154;DHT22;7157;53.144;7.570;2023-12-28T11:11:57;12.87;83.94
14154;DHT22;7157;53.144;7.570;2023-12-28T11:22:02;12.61;84.97
14154;DHT22;7157;53.144;7.570;2023-12-28T11:32:08;12.59;85.68
14154;DHT22;7157;53.144;7.570;2023-12-28T11:42:11;12.46;86.45
14154;DHT22;7157;53.144;7.570;2023-12-28T11:52:23;12.18;87.69
14154;DHT22;7157;53.144;7.570;2023-12-28T12:02:27;12.18;89.05
14154;DHT22;7157;53.144;7.570;2023-12-28T12:12:31;11.73;92.02
14154;DHT22;7157;53.144;7.570;2023-12-28T12:22:34;12.15;89.70
14154;DHT22;7157;53.144;7.570;2023-12-28T12:32:38;11.99;89.35
14154;DHT22;7157;53.144;7.570;2023-12-28T12:42:51;12.01;89.06
14154;DHT22;7157;53.144;7.570;2023-12-28T12:52:56;12.13;88.59
14154;DHT22;7157;53.144;7.570;2023-12-28T13:03:00;12.03;88.02
14154;DHT22;7157;53.144;7.570;2023-12-28T13:13:08;12.17;88.74
14154;DHT22;7157;53.144;7.570;2023-12-28T13:23:11;12.46;87.29
14154;DHT22;7157;53.144;7.570;2023-12-28T13:33:15;12.34;86.94
14154;DHT22;7157;53.144;7.570;2023-12-28T13:43:18;12.32;85.92
14154;DHT22;7157;53.144;7.570;2023-12-28T13:53:22;12.17;86.81
14154;DHT22;7157;53.144;7.570;2023-12-28T14:03:25;12.19;86.18
14154;DHT22;7157;53.144;7.570;2023-12-28T14:13:29;12.07;86.51
14154;DHT22;7157;53.144;7.570;2023-12-28T14:23:33;12.10;86.19
14154;DHT22;7157;53.144;7.570;2023-12-28T14:33:38;11.79;87.92
14154;DHT22;7157;53.144;7.570;2023-12-28T14:43:42;11.74;89.14
14154;DHT22;7157;53.144;7.570;2023-12-28T14:53:47;11.63;89.98
14154;DHT22;7157;53.144;7.570;2023-12-28T15:03:50;11.74;88.66
14154;DHT22;7157;53.144;7.570;2023-12-28T15:13:55;11.85;87.88
14154;DHT22;7157;53.144;7.570;2023-12-28T15:23:58;11.20;92.02
14154;DHT22;7157;53.144;7.570;2023-12-28T15:34:05;11.18;91.93
14154;DHT22;7157;53.144;7.570;2023-12-28T15:44:08;10.21;101.50
14154;DHT22;7157;53.144;7.570;2023-12-28T15:54:13;10.53;98.44
14154;DHT22;7157;53.144;7.570;2023-12-28T16:04:16;10.71;94.85
14154;DHT22;7157;53.144;7.570;2023-12-28T16:14:21;10.95;93.46
14154;DHT22;7157;53.144;7.570;2023-12-28T16:24:24;11.01;92.50
14154;DHT22;7157;53.144;7.570;2023-12-28T16:34:28;11.07;92.42
14154;DHT22;7157;53.144;7.570;2023-12-28T16:44:31;11.09;91.92
14154;DHT22;7157;53.144;7.570;2023-12-28T16:54:35;10.92;93.60
14154;DHT22;7157;53.144;7.570;2023-12-28T17:04:41;10.96;93.60
14154;DHT22;7157;53.144;7.570;2023-12-28T17:14:46;11.43;90.98
14154;DHT22;7157;53.144;7.570;2023-12-28T17:24:53;11.32;92.02
14154;DHT22;7157;53.144;7.570;2023-12-28T17:35:01;11.38;91.95
14154;DHT22;7157;53.144;7.570;2023-12-28T17:45:11;11.24;92.75
14154;DHT22;7157;53.144;7.570;2023-12-28T17:55:17;11.25;92.18
14154;DHT22;7157;53.144;7.570;2023-12-28T18:05:20;11.39;90.53
14154;DHT22;7157;53.144;7.570;2023-12-28T18:15:24;11.58;90.15
14154;DHT22;7157;53.144;7.570;2023-12-28T18:25:27;11.43;89.63
14154;DHT22;7157;53.144;7.570;2023-12-28T18:35:32;11.53;88.48
14154;DHT22;7157;53.144;7.570;2023-12-28T18:45:35;11.68;87.23
14154;DHT22;7157;53.144;7.570;2023-12-28T18:55:41;11.68;86.60
14154;DHT22;7157;53.144;7.570;2023-12-28T19:05:44;11.70;86.64
14154;DHT22;7157;53.144;7.570;2023-12-28T19:15:48;11.70;85.88
14154;DHT22;7157;53.144;7.570;2023-12-28T19:25:51;11.84;85.48
14154;DHT22;7157;53.144;7.570;2023-12-28T19:35:55;11.78;84.83
14154;DHT22;7157;53.144;7.570;2023-12-28T19:45:58;11.59;85.81
14154;DHT22;7157;53.144;7.570;2023-12-28T19:56:02;11.59;86.58
14154;DHT22;7157;53.144;7.570;2023-12-28T20:06:05;11.66;85.70
14154;DHT22;7157;53.144;7.570;2023-12-28T20:16:12;11.67;86.16
14154;DHT22;7157;53.144;7.570;2023-12-28T20:26:15;11.62;86.52
14154;DHT22;7157;53.144;7.570;2023-12-28T20:36:19;11.59;86.82
14154;DHT22;7157;53.144;7.570;2023-12-28T20:46:22;11.38;88.93
14154;DHT22;7157;53.144;7.570;2023-12-28T20:56:26;11.31;89.31
14154;DHT22;7157;53.144;7.570;2023-12-28T21:06:29;11.48;88.17
14154;DHT22;7157;53.144;7.570;2023-12-28T21:16:34;11.38;88.67
14154;DHT22;7157;53.144;7.570;2023-12-28T21:26:36;11.72;87.15
14154;DHT22;7157;53.144;7.570;2023-12-28T21:36:41;11.46;88.94
14154;DHT22;7157;53.144;7.570;2023-12-28T21:46:44;11.09;92.50
14154;DHT22;7157;53.144;7.570;2023-12-28T21:56:49;11.33;91.70
14154;DHT22;7157;53.144;7.570;2023-12-28T22:06:52;11.20;91.69
14154;DHT22;7157;53.144;7.570;2023-12-28T22:16:56;11.27;91.61
14154;DHT22;7157;53.144;7.570;2023-12-28T22:26:59;10.06;104.22
14154;DHT22;7157;53.144;7.570;2023-12-28T22:37:05;9.90;107.62
14154;DHT22;7157;53.144;7.570;2023-12-28T22:47:08;9.82;109.19
14154;DHT22;7157;53.144;7.570;2023-12-28T22:57:13;10.08;107.54
14154;DHT22;7157;53.144;7.570;2023-12-28T23:07:17;10.14;106.53
14154;DHT22;7157;53.144;7.570;2023-12-28T23:17:22;10.18;106.36
14154;DHT22;7157;53.144;7.570;2023-12-28T23:27:27;10.26;105.92
14154;DHT22;7157;53.144;7.570;2023-12-28T23:37:31;9.94;109.01
14154;DHT22;7157;53.144;7.570;2023-12-28T23:47:34;9.92;110.50
14154;DHT22;7157;53.144;7.570;2023-12-28T23:57:38;9.76;113.71
